Time;durP1;ratioP1;P1;durP2;ratioP2;P2;SDS_P1;SDS_P2;PMS_P1;PMS_P2;Temp;Humidity;BMP_temperature;BMP_pressure;BME280_temperature;BME280_humidity;BME280_pressure;Samples;Min_cycle;Max_cycle;Signal;HPM_P1;HPM_P2
2022/09/29 00:00:46;;;;;;;3.70;2.05;;;20.30;64.90;;;;;;4979707;28;87312;-83
2022/09/29 00:03:12;;;;;;;3.50;2.00;;;20.30;64.90;;;;;;4980204;28;87012;-82
2022/09/29 00:05:37;;;;;;;5.57;2.38;;;20.30;64.90;;;;;;4980361;28;89441;-82
2022/09/29 00:08:03;;;;;;;3.53;2.15;;;20.30;64.90;;;;;;4978318;28;89531;-82
2022/09/29 00:10:29;;;;;;;4.25;2.25;;;20.30;64.90;;;;;;4997903;28;87556;-83
2022/09/29 00:12:54;;;;;;;4.57;2.17;;;20.30;65.00;;;;;;4978157;28;88434;-83
2022/09/29 00:15:20;;;;;;;5.70;2.60;;;20.30;65.00;;;;;;4970426;28;90157;-82
2022/09/29 00:17:45;;;;;;;4.82;2.58;;;20.30;64.80;;;;;;4977934;28;90999;-83
2022/09/29 00:20:11;;;;;;;3.25;1.98;;;20.30;64.70;;;;;;4981057;28;87097;-83
2022/09/29 00:22:37;;;;;;;3.15;2.13;;;20.30;64.60;;;;;;4979485;28;87254;-82
2022/09/29 00:25:02;;;;;;;3.38;2.17;;;20.30;64.60;;;;;;4979443;28;88268;-82
2022/09/29 00:27:28;;;;;;;4.00;2.33;;;20.30;64.60;;;;;;4978964;28;90441;-83
2022/09/29 00:29:54;;;;;;;3.10;1.83;;;20.30;64.60;;;;;;4978675;28;88201;-83
2022/09/29 00:32:19;;;;;;;3.83;2.35;;;20.30;64.70;;;;;;4980986;28;87168;-83
2022/09/29 00:34:45;;;;;;;5.25;2.13;;;20.20;64.60;;;;;;4977606;28;90309;-82
2022/09/29 00:37:10;;;;;;;4.10;1.85;;;20.30;64.60;;;;;;4977956;28;88925;-83
2022/09/29 00:39:36;;;;;;;4.85;2.13;;;20.30;64.60;;;;;;4980343;28;87660;-83
2022/09/29 00:42:01;;;;;;;2.90;1.77;;;20.20;64.60;;;;;;4979342;28;87119;-83
2022/09/29 00:44:52;;;;;;;4.15;2.10;;;20.20;64.50;;;;;;4978600;28;92125;-83
2022/09/29 00:47:18;;;;;;;3.17;2.03;;;20.20;64.40;;;;;;4969397;28;92424;-84
2022/09/29 00:49:44;;;;;;;5.25;2.10;;;20.20;64.20;;;;;;4967851;28;87663;-83
2022/09/29 00:52:14;;;;;;;4.15;2.33;;;20.20;64.40;;;;;;4969383;28;93471;-83
2022/09/29 00:54:48;;;;;;;3.08;2.13;;;20.20;64.50;;;;;;4976080;28;89175;-82
2022/09/29 00:57:18;;;;;;;5.70;2.55;;;20.20;64.50;;;;;;4993364;28;89324;-83
2022/09/29 01:00:01;;;;;;;3.78;2.10;;;20.20;64.40;;;;;;4980057;28;86982;-83
2022/09/29 01:02:29;;;;;;;3.28;1.88;;;20.20;64.40;;;;;;4967135;28;93944;-83
2022/09/29 01:04:55;;;;;;;4.63;2.15;;;20.20;64.40;;;;;;4967582;28;88789;-84
2022/09/29 01:07:24;;;;;;;3.15;2.00;;;20.20;65.10;;;;;;4967688;28;87763;-82
2022/09/29 01:09:52;;;;;;;4.60;2.25;;;20.10;64.30;;;;;;4966612;28;87196;-84
2022/09/29 01:12:19;;;;;;;3.13;2.00;;;20.10;64.40;;;;;;4977864;28;90387;-82
2022/09/29 01:14:46;;;;;;;3.45;1.85;;;20.10;64.40;;;;;;4978959;28;87954;-83
2022/09/29 01:17:12;;;;;;;3.95;2.55;;;20.10;64.30;;;;;;4978062;28;91115;-83
2022/09/29 01:20:01;;;;;;;2.35;1.80;;;20.10;64.40;;;;;;4978279;28;88044;-85
2022/09/29 01:23:04;;;;;;;3.65;2.08;;;20.10;64.50;;;;;;4978269;28;87428;-82
2022/09/29 01:26:07;;;;;;;2.33;1.70;;;20.10;64.20;;;;;;4978916;28;88739;-83
2022/09/29 01:29:09;;;;;;;2.50;1.85;;;20.10;64.30;;;;;;4976692;28;90390;-82
2022/09/29 01:31:51;;;;;;;3.63;1.92;;;20.10;64.10;;;;;;4976707;28;87440;-82
2022/09/29 01:34:23;;;;;;;3.30;1.85;;;20.10;64.40;;;;;;4977801;28;88152;-82
2022/09/29 01:36:51;;;;;;;3.22;2.05;;;20.10;64.40;;;;;;4992128;28;91956;-82
2022/09/29 01:39:32;;;;;;;5.30;2.20;;;20.10;64.20;;;;;;4979707;28;87177;-82
2022/09/29 01:42:16;;;;;;;3.95;1.85;;;20.10;64.30;;;;;;4977362;28;87525;-83
2022/09/29 01:45:31;;;;;;;3.22;2.00;;;20.10;64.30;;;;;;4979139;28;87722;-82
2022/09/29 01:48:24;;;;;;;2.20;1.50;;;20.10;64.20;;;;;;4935524;28;94249;-84
2022/09/29 01:50:55;;;;;;;3.42;2.17;;;20.00;64.20;;;;;;4916271;28;91222;-85
2022/09/29 01:53:32;;;;;;;2.08;1.58;;;20.10;64.20;;;;;;4937392;28;87755;-83
2022/09/29 01:56:04;;;;;;;2.97;1.77;;;20.00;64.20;;;;;;4936308;28;87478;-84
2022/09/29 01:58:54;;;;;;;3.28;2.00;;;20.00;64.10;;;;;;4935983;28;90354;-85
2022/09/29 02:01:23;;;;;;;3.17;1.83;;;20.00;64.00;;;;;;4935488;28;88139;-84
2022/09/29 02:03:55;;;;;;;3.70;1.90;;;20.00;64.10;;;;;;4936849;28;87606;-83
2022/09/29 02:06:27;;;;;;;2.22;1.55;;;20.00;64.20;;;;;;4935785;28;87167;-84
2022/09/29 02:09:01;;;;;;;2.80;1.77;;;20.00;64.10;;;;;;4936541;28;87586;-84
2022/09/29 02:11:28;;;;;;;2.25;1.65;;;20.00;64.10;;;;;;4937154;28;88415;-85
2022/09/29 02:14:19;;;;;;;6.00;2.05;;;20.00;64.10;;;;;;4935091;28;87994;-84
2022/09/29 02:17:10;;;;;;;2.80;1.90;;;20.00;64.00;;;;;;4943824;28;87943;-85
2022/09/29 02:19:41;;;;;;;3.50;2.00;;;20.00;63.90;;;;;;4858806;29;89099;-82
2022/09/29 02:22:06;;;;;;;3.85;2.25;;;20.00;64.00;;;;;;4853311;29;88020;-84
2022/09/29 02:24:32;;;;;;;3.47;2.00;;;20.00;64.10;;;;;;4847397;29;87503;-85
2022/09/29 02:26:58;;;;;;;2.20;1.67;;;19.90;64.00;;;;;;4853071;28;87500;-84
2022/09/29 02:29:23;;;;;;;2.80;1.73;;;19.90;64.20;;;;;;4904152;28;88220;-84
2022/09/29 02:31:49;;;;;;;2.47;1.52;;;19.90;64.10;;;;;;4904346;28;88795;-84
2022/09/29 02:34:20;;;;;;;4.80;2.20;;;20.00;63.80;;;;;;4904124;28;87473;-84
2022/09/29 02:37:07;;;;;;;3.13;1.38;;;19.90;63.80;;;;;;4904305;28;87061;-84
2022/09/29 02:40:01;;;;;;;2.20;1.60;;;19.90;63.80;;;;;;4902801;28;89495;-84
2022/09/29 02:42:35;;;;;;;2.92;1.88;;;19.90;63.80;;;;;;4887320;28;92470;-86
2022/09/29 02:45:20;;;;;;;2.50;1.60;;;19.90;63.80;;;;;;4903605;28;87816;-84
2022/09/29 02:48:35;;;;;;;3.28;2.20;;;19.90;63.90;;;;;;4904154;28;87294;-85
2022/09/29 02:51:35;;;;;;;3.70;1.65;;;19.90;63.90;;;;;;4883491;28;88298;-84
2022/09/29 02:54:08;;;;;;;2.60;1.70;;;19.90;64.60;;;;;;4864878;29;87367;-84
2022/09/29 02:56:54;;;;;;;3.20;1.83;;;19.90;64.70;;;;;;4876947;28;87270;-85
2022/09/29 02:59:26;;;;;;;1.98;1.52;;;19.90;63.90;;;;;;4894282;28;92199;-82
2022/09/29 03:01:54;;;;;;;2.25;1.52;;;19.80;63.60;;;;;;4900891;28;88647;-83
2022/09/29 03:04:22;;;;;;;2.28;1.40;;;19.80;63.70;;;;;;4903350;28;87017;-84
2022/09/29 03:06:48;;;;;;;2.75;1.55;;;19.80;63.80;;;;;;4902957;28;88478;-86
2022/09/29 03:09:14;;;;;;;2.30;1.58;;;19.80;63.70;;;;;;4902381;28;87583;-83
2022/09/29 03:11:39;;;;;;;2.22;1.75;;;19.80;63.50;;;;;;4903389;28;88234;-85
2022/09/29 03:14:05;;;;;;;2.08;1.45;;;19.80;63.70;;;;;;4901961;28;88095;-84
2022/09/29 03:16:32;;;;;;;2.00;1.60;;;19.80;63.60;;;;;;4900343;28;87523;-84
2022/09/29 03:18:57;;;;;;;2.33;1.70;;;19.80;64.50;;;;;;4884506;28;90684;-85
2022/09/29 03:21:23;;;;;;;2.55;1.60;;;19.80;63.60;;;;;;4901412;28;87409;-85
2022/09/29 03:23:49;;;;;;;2.17;1.63;;;19.80;63.60;;;;;;4900406;28;88245;-85
2022/09/29 03:26:14;;;;;;;2.45;1.52;;;19.80;63.60;;;;;;4900636;28;86959;-83
2022/09/29 03:28:41;;;;;;;3.17;1.85;;;19.80;63.50;;;;;;4976337;28;87483;-85
2022/09/29 03:31:08;;;;;;;1.85;1.42;;;19.80;63.40;;;;;;4962855;28;92604;-84
2022/09/29 03:33:38;;;;;;;4.20;1.60;;;19.80;63.20;;;;;;4958488;28;89285;-85
2022/09/29 03:36:05;;;;;;;2.22;1.45;;;19.80;63.50;;;;;;4972006;28;87179;-84
2022/09/29 03:38:34;;;;;;;2.80;1.52;;;19.80;63.40;;;;;;4958510;28;87074;-84
2022/09/29 03:40:59;;;;;;;1.83;1.40;;;19.80;63.40;;;;;;4956289;28;88719;-84
2022/09/29 03:43:25;;;;;;;2.55;1.77;;;19.80;63.40;;;;;;4960259;28;87848;-83
2022/09/29 03:45:52;;;;;;;2.97;1.88;;;19.80;63.30;;;;;;4958888;28;87070;-84
2022/09/29 03:48:19;;;;;;;2.40;1.67;;;19.80;63.30;;;;;;4960553;28;87137;-83
2022/09/29 03:50:45;;;;;;;1.60;1.30;;;19.80;63.30;;;;;;4959428;28;86843;-84
2022/09/29 03:53:11;;;;;;;2.22;1.60;;;19.80;63.30;;;;;;4960448;28;88413;-85
2022/09/29 03:55:37;;;;;;;2.28;1.75;;;19.70;63.30;;;;;;4968544;28;87825;-84
2022/09/29 03:58:02;;;;;;;2.58;1.73;;;19.80;63.40;;;;;;4974182;28;87609;-83
2022/09/29 04:00:28;;;;;;;2.05;1.80;;;19.80;63.50;;;;;;4979338;28;88378;-84
2022/09/29 04:02:54;;;;;;;2.13;1.40;;;19.70;63.50;;;;;;4979888;28;87443;-85
2022/09/29 04:05:20;;;;;;;2.00;1.42;;;19.70;63.30;;;;;;4980562;28;87691;-84
2022/09/29 04:07:46;;;;;;;1.98;1.30;;;19.70;63.20;;;;;;4978491;28;90508;-83
2022/09/29 04:10:12;;;;;;;2.60;1.65;;;19.70;63.20;;;;;;4980210;28;87732;-83
2022/09/29 04:12:37;;;;;;;1.50;1.40;;;19.70;63.40;;;;;;4979941;28;87883;-84
2022/09/29 04:15:03;;;;;;;1.88;1.45;;;19.70;63.30;;;;;;4977860;28;87145;-84
2022/09/29 04:17:29;;;;;;;3.78;1.90;;;19.70;63.30;;;;;;4980261;28;87552;-84
2022/09/29 04:19:55;;;;;;;1.73;1.40;;;19.70;63.20;;;;;;4978948;28;88566;-82
2022/09/29 04:22:20;;;;;;;2.05;1.52;;;19.70;63.20;;;;;;4977683;28;92180;-83
2022/09/29 04:24:50;;;;;;;1.88;1.27;;;19.70;63.20;;;;;;4969159;28;87375;-83
2022/09/29 04:27:17;;;;;;;1.98;1.40;;;19.60;63.50;;;;;;4960944;28;87828;-81
2022/09/29 04:29:43;;;;;;;2.95;1.42;;;19.60;64.30;;;;;;4975849;28;87515;-85
2022/09/29 04:32:08;;;;;;;3.85;2.45;;;19.60;63.60;;;;;;4974959;28;88309;-83
2022/09/29 04:34:34;;;;;;;5.35;2.58;;;19.60;63.20;;;;;;4975206;28;87170;-83
2022/09/29 04:36:59;;;;;;;4.65;2.35;;;19.60;63.70;;;;;;4975719;28;89969;-84
2022/09/29 04:39:26;;;;;;;4.63;2.35;;;19.60;63.50;;;;;;4975185;28;89187;-83
2022/09/29 04:41:51;;;;;;;3.22;2.30;;;19.60;63.40;;;;;;4958102;28;89928;-83
2022/09/29 04:44:21;;;;;;;4.72;2.00;;;19.60;63.40;;;;;;4975491;28;88060;-84
2022/09/29 04:46:48;;;;;;;8.55;2.53;;;19.60;63.10;;;;;;4975884;28;87098;-84
2022/09/29 04:49:13;;;;;;;3.10;2.13;;;19.60;63.40;;;;;;4975232;28;88763;-83
2022/09/29 04:51:39;;;;;;;3.22;1.73;;;19.60;63.50;;;;;;4954879;28;89531;-83
2022/09/29 04:54:05;;;;;;;3.63;2.00;;;19.50;63.30;;;;;;4955313;28;87639;-84
2022/09/29 04:56:30;;;;;;;6.03;2.60;;;19.60;63.30;;;;;;4973067;28;87122;-83
2022/09/29 04:58:57;;;;;;;3.17;2.38;;;19.60;63.30;;;;;;4976166;28;87994;-83
2022/09/29 05:01:23;;;;;;;2.47;2.03;;;19.60;63.00;;;;;;4975949;28;87680;-83
2022/09/29 05:03:49;;;;;;;3.35;2.20;;;19.60;63.00;;;;;;4976224;28;87571;-85
2022/09/29 05:06:14;;;;;;;4.75;2.55;;;19.60;62.90;;;;;;4975155;28;87683;-83
2022/09/29 05:08:40;;;;;;;3.85;2.22;;;19.60;63.00;;;;;;4976445;28;88751;-85
2022/09/29 05:11:07;;;;;;;3.65;1.92;;;19.50;63.00;;;;;;4975725;28;89381;-83
2022/09/29 05:13:33;;;;;;;5.50;2.10;;;19.60;63.10;;;;;;4976331;28;87643;-83
2022/09/29 05:15:59;;;;;;;2.47;2.08;;;19.50;63.00;;;;;;4975436;28;87397;-83
2022/09/29 05:18:25;;;;;;;5.03;2.28;;;19.60;63.00;;;;;;4976161;28;89300;-83
2022/09/29 05:20:52;;;;;;;3.20;2.13;;;19.50;62.90;;;;;;4975440;28;87535;-83
2022/09/29 05:23:17;;;;;;;2.70;2.15;;;19.50;62.90;;;;;;4978641;28;87268;-83
2022/09/29 05:25:43;;;;;;;2.65;1.85;;;19.50;62.80;;;;;;4976918;28;90944;-84
2022/09/29 05:28:10;;;;;;;3.45;2.40;;;19.50;62.70;;;;;;4978918;28;89110;-83
2022/09/29 05:30:37;;;;;;;2.85;1.90;;;19.50;62.80;;;;;;4979876;28;88173;-83
2022/09/29 05:33:02;;;;;;;3.25;2.20;;;19.50;62.80;;;;;;4976211;28;88011;-83
2022/09/29 05:35:28;;;;;;;3.00;2.30;;;19.50;62.90;;;;;;4979335;28;87406;-84
2022/09/29 05:37:53;;;;;;;3.25;2.40;;;19.50;62.60;;;;;;4978097;28;88522;-83
2022/09/29 05:40:22;;;;;;;3.13;2.03;;;19.50;62.60;;;;;;4978060;28;88259;-83
2022/09/29 05:42:48;;;;;;;3.10;1.98;;;19.50;62.60;;;;;;4977933;28;87729;-84
2022/09/29 05:45:14;;;;;;;3.30;2.13;;;19.50;62.60;;;;;;4976017;28;90533;-83
2022/09/29 05:47:44;;;;;;;2.00;1.77;;;19.50;62.60;;;;;;4979490;28;88533;-83
2022/09/29 05:50:10;;;;;;;2.75;1.90;;;19.40;62.70;;;;;;4978245;28;88222;-82
2022/09/29 05:52:37;;;;;;;5.00;2.47;;;19.50;60.70;;;;;;4978542;28;87440;-83
2022/09/29 05:55:03;;;;;;;5.70;2.70;;;19.50;61.80;;;;;;4977272;28;87323;-81
2022/09/29 05:57:29;;;;;;;7.78;2.50;;;19.50;62.50;;;;;;4977317;28;89642;-83
2022/09/29 05:59:54;;;;;;;3.55;2.35;;;19.50;63.00;;;;;;4977354;28;89006;-83
2022/09/29 06:02:20;;;;;;;4.72;2.58;;;19.50;62.70;;;;;;4980033;28;87328;-85
2022/09/29 06:04:46;;;;;;;7.45;3.00;;;19.40;62.80;;;;;;4979005;28;87819;-83
2022/09/29 06:07:12;;;;;;;4.00;2.50;;;19.60;59.70;;;;;;4978238;28;87580;-84
2022/09/29 06:09:37;;;;;;;4.82;2.67;;;19.70;61.40;;;;;;4978442;28;87669;-85
2022/09/29 06:12:03;;;;;;;5.55;2.67;;;19.80;61.80;;;;;;4976677;28;87678;-82
2022/09/29 06:14:28;;;;;;;5.15;2.40;;;19.80;61.90;;;;;;4977453;28;90455;-85
2022/09/29 06:16:54;;;;;;;5.65;2.75;;;19.90;62.00;;;;;;4976535;28;90516;-84
2022/09/29 06:19:20;;;;;;;5.63;2.40;;;19.90;61.90;;;;;;4977298;28;88127;-85
2022/09/29 06:21:46;;;;;;;5.10;2.70;;;20.00;61.70;;;;;;4976135;28;88535;-85
2022/09/29 06:24:11;;;;;;;6.53;2.38;;;20.00;61.50;;;;;;4976027;28;90300;-84
2022/09/29 06:26:38;;;;;;;5.35;2.47;;;20.10;61.50;;;;;;4993446;28;91365;-85
2022/09/29 06:29:03;;;;;;;7.63;2.20;;;20.10;61.70;;;;;;4977977;28;90443;-84
2022/09/29 06:31:30;;;;;;;6.72;2.67;;;20.10;61.80;;;;;;4975670;28;87576;-85
2022/09/29 06:33:58;;;;;;;4.95;2.50;;;20.10;61.60;;;;;;4978819;28;87058;-83
2022/09/29 06:39:28;;;;;;;4.43;2.20;;;20.20;61.80;;;;;;4977908;28;87079;-84
2022/09/29 06:41:55;;;;;;;7.00;2.30;;;20.40;61.90;;;;;;4977259;28;87552;-82
2022/09/29 06:44:25;;;;;;;5.43;2.33;;;20.40;61.00;;;;;;4978557;28;87936;-82
2022/09/29 06:46:51;;;;;;;5.72;2.28;;;20.40;60.90;;;;;;4974428;28;91698;-83
2022/09/29 06:49:18;;;;;;;8.27;2.60;;;20.50;59.80;;;;;;4976353;28;89231;-84
2022/09/29 06:51:44;;;;;;;4.32;2.10;;;20.70;60.40;;;;;;4976731;28;87061;-84
2022/09/29 06:54:11;;;;;;;7.70;2.30;;;20.70;59.90;;;;;;4974374;28;88582;-83
2022/09/29 06:56:37;;;;;;;4.45;2.40;;;20.70;60.40;;;;;;4975318;28;90031;-83
2022/09/29 06:59:03;;;;;;;12.25;4.20;;;20.70;60.50;;;;;;4975186;28;87811;-83
2022/09/29 07:01:28;;;;;;;12.23;3.65;;;20.60;53.70;;;;;;4975387;28;87647;-84
2022/09/29 07:03:54;;;;;;;9.90;4.35;;;20.40;51.90;;;;;;4975263;28;88985;-84
2022/09/29 07:06:20;;;;;;;10.18;3.38;;;20.50;56.00;;;;;;4977046;28;88516;-82
2022/09/29 07:08:45;;;;;;;13.70;2.70;;;20.40;55.90;;;;;;4977478;28;88300;-83
2022/09/29 07:11:11;;;;;;;6.65;3.13;;;20.50;57.30;;;;;;4978439;28;88472;-82
2022/09/29 07:13:37;;;;;;;13.25;3.50;;;20.50;53.90;;;;;;4977587;28;89197;-83
2022/09/29 07:16:08;;;;;;;9.57;3.58;;;20.40;55.40;;;;;;4978907;28;87517;-82
2022/09/29 07:18:36;;;;;;;14.85;4.03;;;20.40;56.60;;;;;;4955437;28;87618;-82
2022/09/29 07:21:03;;;;;;;12.65;3.35;;;20.40;57.40;;;;;;4970442;28;87020;-82
2022/09/29 07:23:29;;;;;;;12.68;4.43;;;20.40;57.50;;;;;;4959953;28;88003;-82
2022/09/29 07:25:54;;;;;;;21.05;5.03;;;20.40;57.80;;;;;;4957989;28;89975;-81
2022/09/29 07:28:20;;;;;;;39.63;6.75;;;20.40;58.10;;;;;;4959730;28;88918;-83
2022/09/29 07:30:46;;;;;;;22.42;5.88;;;20.50;56.90;;;;;;4958823;28;87370;-84
2022/09/29 07:33:11;;;;;;;15.20;4.40;;;20.50;57.80;;;;;;4959774;28;87447;-83
2022/09/29 07:35:37;;;;;;;23.83;5.80;;;20.50;58.00;;;;;;4959763;28;88456;-81
2022/09/29 07:38:02;;;;;;;26.38;6.10;;;20.50;56.90;;;;;;4959084;28;88090;-83
2022/09/29 07:40:28;;;;;;;20.70;6.15;;;20.50;55.20;;;;;;4959595;28;87568;-84
2022/09/29 07:42:54;;;;;;;28.98;7.35;;;20.50;57.30;;;;;;4959174;28;86997;-82
2022/09/29 07:45:19;;;;;;;29.80;6.22;;;20.50;55.40;;;;;;4959298;28;87574;-83
2022/09/29 07:47:45;;;;;;;32.50;7.40;;;20.50;52.40;;;;;;4958805;28;88219;-82
2022/09/29 07:50:11;;;;;;;29.30;6.97;;;20.50;55.70;;;;;;4960464;28;87399;-83
2022/09/29 07:52:37;;;;;;;29.02;7.10;;;20.50;56.60;;;;;;4959127;28;87344;-83
2022/09/29 07:55:03;;;;;;;29.83;6.85;;;20.50;56.50;;;;;;4958536;28;88328;-81
2022/09/29 07:57:29;;;;;;;33.85;8.45;;;20.60;56.60;;;;;;4959195;28;88244;-82
2022/09/29 07:59:56;;;;;;;21.48;7.13;;;20.60;56.20;;;;;;4959314;28;88061;-82
2022/09/29 08:02:22;;;;;;;30.00;7.25;;;20.60;56.50;;;;;;4957367;28;89379;-82
2022/09/29 08:04:48;;;;;;;30.73;6.93;;;20.60;56.70;;;;;;4958496;28;88683;-83
2022/09/29 08:07:13;;;;;;;32.50;7.45;;;20.60;56.80;;;;;;4951917;28;90548;-85
2022/09/29 08:09:39;;;;;;;26.55;6.90;;;20.70;57.00;;;;;;4954259;28;87133;-85
2022/09/29 08:12:04;;;;;;;22.45;7.28;;;20.70;56.80;;;;;;4956977;28;95479;-82
2022/09/29 08:14:30;;;;;;;19.48;6.40;;;20.80;56.70;;;;;;4952066;28;89749;-81
2022/09/29 08:16:55;;;;;;;33.85;7.20;;;20.80;56.00;;;;;;4962229;28;90507;-82
2022/09/29 08:19:21;;;;;;;28.58;7.38;;;20.70;56.20;;;;;;4969295;28;87330;-81
2022/09/29 08:21:48;;;;;;;26.38;6.38;;;20.80;56.50;;;;;;4971636;28;90980;-84
2022/09/29 08:24:16;;;;;;;26.25;6.65;;;20.70;56.50;;;;;;4967971;28;89507;-82
2022/09/29 08:26:42;;;;;;;26.15;6.85;;;20.70;56.50;;;;;;4951294;28;91154;-82
2022/09/29 08:29:08;;;;;;;22.02;6.30;;;20.70;56.50;;;;;;4960707;28;87230;-83
2022/09/29 08:31:34;;;;;;;27.98;6.78;;;20.70;56.60;;;;;;4978095;28;87038;-82
2022/09/29 08:33:59;;;;;;;27.00;6.18;;;20.70;56.60;;;;;;4978470;28;87019;-83
2022/09/29 08:36:25;;;;;;;20.00;6.35;;;20.70;56.90;;;;;;4973452;28;87135;-82
2022/09/29 08:38:52;;;;;;;30.35;6.95;;;20.60;57.70;;;;;;4959563;28;86869;-82
2022/09/29 08:41:51;;;;;;;17.10;5.70;;;20.60;57.10;;;;;;4960082;28;87030;-82
2022/09/29 08:44:16;;;;;;;17.70;6.32;;;20.50;57.20;;;;;;4908103;28;93693;-84
2022/09/29 08:46:47;;;;;;;24.02;6.10;;;20.50;57.50;;;;;;4907018;28;87343;-82
2022/09/29 08:49:24;;;;;;;21.17;5.95;;;20.50;57.70;;;;;;4905906;28;88308;-83
2022/09/29 08:51:54;;;;;;;23.77;6.38;;;20.50;57.70;;;;;;4905686;28;88106;-83
2022/09/29 08:54:33;;;;;;;29.10;6.68;;;20.50;57.70;;;;;;4908410;28;88699;-83
2022/09/29 08:56:59;;;;;;;16.98;6.00;;;20.50;58.00;;;;;;4907111;28;90223;-84
2022/09/29 08:59:28;;;;;;;18.67;5.40;;;20.40;58.00;;;;;;4899395;28;87263;-81
2022/09/29 09:02:06;;;;;;;14.43;5.35;;;20.50;58.00;;;;;;4905892;28;87327;-83
2022/09/29 09:04:53;;;;;;;18.40;6.20;;;20.50;57.90;;;;;;4905323;28;88678;-85
2022/09/29 09:07:54;;;;;;;23.88;5.38;;;20.50;58.20;;;;;;4909466;28;88485;-83
2022/09/29 09:10:41;;;;;;;15.55;5.60;;;20.40;58.40;;;;;;4880435;28;87517;-84
2022/09/29 09:13:45;;;;;;;15.13;5.45;;;20.40;58.50;;;;;;4873420;28;88809;-84
2022/09/29 09:16:24;;;;;;;18.08;5.65;;;20.40;58.40;;;;;;4889011;28;90974;-84
2022/09/29 09:19:08;;;;;;;15.60;5.78;;;20.40;58.60;;;;;;4887723;28;94473;-84
2022/09/29 09:21:42;;;;;;;18.10;6.05;;;20.40;58.60;;;;;;4904029;28;87519;-85
2022/09/29 09:24:13;;;;;;;18.40;5.63;;;20.40;58.80;;;;;;4905315;28;87343;-83
2022/09/29 09:26:42;;;;;;;22.00;5.18;;;20.40;58.80;;;;;;4908506;28;88338;-82
2022/09/29 09:29:20;;;;;;;15.30;5.13;;;20.40;58.90;;;;;;4906686;28;87820;-82
2022/09/29 09:31:53;;;;;;;21.25;6.07;;;20.40;59.00;;;;;;4905696;28;87518;-83
2022/09/29 09:34:27;;;;;;;13.80;5.13;;;20.40;59.10;;;;;;4893199;28;90792;-82
2022/09/29 09:37:19;;;;;;;20.88;5.60;;;20.30;59.00;;;;;;4897715;28;87687;-87
2022/09/29 09:39:47;;;;;;;13.82;5.30;;;20.30;58.90;;;;;;4905299;28;88166;-83
2022/09/29 09:42:17;;;;;;;13.65;4.93;;;20.30;59.10;;;;;;4897886;28;88093;-82
2022/09/29 09:44:51;;;;;;;25.25;5.38;;;20.40;58.90;;;;;;4889121;28;90759;-84
2022/09/29 09:47:22;;;;;;;18.02;5.18;;;20.30;58.80;;;;;;4931385;28;93134;-84
2022/09/29 09:49:53;;;;;;;16.02;5.30;;;20.40;58.40;;;;;;4967057;28;88191;-83
2022/09/29 09:52:25;;;;;;;16.63;4.72;;;20.40;58.80;;;;;;4954889;28;87448;-84
2022/09/29 09:54:58;;;;;;;19.33;4.82;;;20.40;59.10;;;;;;4976405;28;87432;-81
2022/09/29 09:57:36;;;;;;;19.42;4.72;;;20.40;59.40;;;;;;4972606;28;88802;-82
2022/09/29 10:00:31;;;;;;;17.15;5.25;;;20.40;59.00;;;;;;4957577;28;86670;-81
2022/09/29 10:03:03;;;;;;;15.07;4.78;;;20.40;59.50;;;;;;4904451;28;87086;-82
2022/09/29 10:05:55;;;;;;;18.80;5.25;;;20.40;59.20;;;;;;4907456;28;88031;-81
2022/09/29 10:08:26;;;;;;;20.63;4.90;;;20.40;58.90;;;;;;4916498;28;92869;-83
2022/09/29 10:10:53;;;;;;;13.43;4.57;;;20.40;59.70;;;;;;4900623;28;88388;-86
2022/09/29 10:13:19;;;;;;;18.38;5.63;;;20.40;59.60;;;;;;4897585;28;87962;-85
2022/09/29 10:16:00;;;;;;;12.27;3.95;;;20.40;59.70;;;;;;4897366;28;88288;-84
2022/09/29 10:18:42;;;;;;;13.75;4.63;;;20.40;60.10;;;;;;4897195;28;89744;-84
2022/09/29 10:21:28;;;;;;;13.52;4.53;;;20.40;60.40;;;;;;4897058;28;87954;-84
2022/09/29 10:23:59;;;;;;;15.98;4.22;;;20.40;60.60;;;;;;4896228;28;87511;-81
2022/09/29 10:26:43;;;;;;;9.68;3.90;;;20.40;60.90;;;;;;4896460;28;88015;-80
2022/09/29 10:29:38;;;;;;;20.42;5.68;;;20.40;60.90;;;;;;4896236;28;88536;-82
2022/09/29 10:32:37;;;;;;;11.55;3.75;;;20.40;61.10;;;;;;4896202;28;88167;-81
2022/09/29 10:35:25;;;;;;;13.70;4.82;;;20.40;61.30;;;;;;4876104;28;88267;-82
2022/09/29 10:38:05;;;;;;;10.55;3.78;;;20.40;61.80;;;;;;4878645;28;87156;-82
2022/09/29 10:40:30;;;;;;;15.73;4.68;;;20.40;61.20;;;;;;4922304;28;88062;-82
2022/09/29 10:42:56;;;;;;;16.45;4.47;;;20.50;61.70;;;;;;4936943;28;88723;-81
2022/09/29 10:45:28;;;;;;;14.77;4.68;;;20.50;62.00;;;;;;4928046;28;87356;-83
2022/09/29 10:47:57;;;;;;;18.48;5.03;;;20.60;61.60;;;;;;4919857;28;87453;-83
2022/09/29 10:50:29;;;;;;;14.05;4.53;;;20.70;61.10;;;;;;4919638;28;88499;-84
2022/09/29 10:52:56;;;;;;;14.88;4.30;;;20.60;57.70;;;;;;4919588;28;88967;-83
2022/09/29 10:55:27;;;;;;;11.02;4.07;;;20.50;57.70;;;;;;4919338;28;88200;-83
2022/09/29 10:57:57;;;;;;;11.85;4.22;;;20.40;58.30;;;;;;4890434;28;90934;-83
2022/09/29 11:00:33;;;;;;;13.00;4.80;;;20.40;58.40;;;;;;4904714;28;90281;-83
2022/09/29 11:03:21;;;;;;;23.77;4.57;;;20.30;58.50;;;;;;4910364;28;92461;-83
2022/09/29 11:06:13;;;;;;;9.73;3.63;;;20.30;59.30;;;;;;4884526;28;87611;-84
2022/09/29 11:08:54;;;;;;;17.55;4.32;;;20.30;59.60;;;;;;4920031;28;88224;-83
2022/09/29 11:11:25;;;;;;;14.27;4.50;;;20.30;59.10;;;;;;4914692;28;95999;-83
2022/09/29 11:13:51;;;;;;;10.82;4.38;;;20.30;59.50;;;;;;4960020;28;91475;-84
2022/09/29 11:16:32;;;;;;;14.82;4.30;;;20.30;59.30;;;;;;4980425;28;87336;-84
2022/09/29 11:19:11;;;;;;;10.85;4.40;;;20.30;59.40;;;;;;4962637;28;89318;-84
2022/09/29 11:21:55;;;;;;;13.73;4.47;;;20.30;59.60;;;;;;4962580;28;91653;-85
2022/09/29 11:24:51;;;;;;;13.82;4.47;;;20.30;59.70;;;;;;4961169;28;90184;-84
2022/09/29 11:27:33;;;;;;;12.98;4.40;;;20.30;59.50;;;;;;4981103;28;88481;-84
2022/09/29 11:30:14;;;;;;;18.05;5.03;;;20.30;59.40;;;;;;4959962;28;90802;-84
2022/09/29 11:33:00;;;;;;;15.55;4.97;;;20.30;59.50;;;;;;4961822;28;88104;-84
2022/09/29 11:35:57;;;;;;;15.27;5.18;;;20.30;59.30;;;;;;4980580;28;92978;-84
2022/09/29 11:38:58;;;;;;;14.00;4.72;;;20.30;59.20;;;;;;4980744;28;87436;-84
2022/09/29 11:41:48;;;;;;;17.70;5.47;;;20.30;59.50;;;;;;4961892;28;94947;-85
2022/09/29 11:44:32;;;;;;;12.15;4.25;;;20.30;59.70;;;;;;4980459;28;91698;-84
2022/09/29 11:47:16;;;;;;;14.48;5.32;;;20.30;59.70;;;;;;4979924;28;88522;-84
2022/09/29 11:50:05;;;;;;;14.63;4.78;;;20.30;59.60;;;;;;4946707;28;87071;-84
2022/09/29 11:52:38;;;;;;;16.75;4.80;;;20.30;59.60;;;;;;4960468;28;87397;-84
2022/09/29 11:55:32;;;;;;;15.85;4.85;;;20.30;59.40;;;;;;4955832;28;91876;-84
2022/09/29 11:58:07;;;;;;;20.77;5.22;;;20.30;59.50;;;;;;4949584;28;91321;-85
2022/09/29 12:00:45;;;;;;;15.52;5.20;;;20.30;59.60;;;;;;4958130;28;87145;-84
2022/09/29 12:03:17;;;;;;;11.80;4.50;;;20.30;59.70;;;;;;4957867;28;87610;-83
2022/09/29 12:06:15;;;;;;;13.32;4.53;;;20.30;59.70;;;;;;4958232;28;89063;-84
2022/09/29 12:09:02;;;;;;;13.93;4.32;;;20.30;59.50;;;;;;4976893;28;93141;-83
2022/09/29 12:11:37;;;;;;;12.88;4.72;;;20.30;59.60;;;;;;4961240;28;87002;-84
2022/09/29 12:14:14;;;;;;;13.23;5.07;;;20.30;59.60;;;;;;4975762;28;87492;-84
2022/09/29 12:16:51;;;;;;;12.73;4.50;;;20.30;59.60;;;;;;4961290;28;89104;-84
2022/09/29 12:19:22;;;;;;;16.35;4.68;;;20.30;59.60;;;;;;4941009;28;90444;-83
2022/09/29 12:21:50;;;;;;;14.10;4.13;;;20.30;59.60;;;;;;4956913;28;88292;-83
2022/09/29 12:24:25;;;;;;;9.75;3.85;;;20.30;59.60;;;;;;4956844;28;87337;-83
2022/09/29 12:26:51;;;;;;;15.63;4.50;;;20.30;59.50;;;;;;4959293;28;88308;-84
2022/09/29 12:29:36;;;;;;;15.35;4.68;;;20.30;59.40;;;;;;4960678;28;88356;-84
2022/09/29 12:32:24;;;;;;;9.48;4.00;;;20.30;59.40;;;;;;4960873;28;87586;-83
2022/09/29 12:34:55;;;;;;;9.93;3.90;;;20.30;59.20;;;;;;4941167;28;90470;-83
2022/09/29 12:37:42;;;;;;;9.25;3.80;;;20.30;59.10;;;;;;4960020;28;89024;-83
2022/09/29 12:40:21;;;;;;;12.82;4.53;;;20.30;59.10;;;;;;4942776;28;91896;-83
2022/09/29 12:43:10;;;;;;;11.30;3.92;;;20.30;59.20;;;;;;4960950;28;87044;-84
2022/09/29 12:45:47;;;;;;;13.52;4.13;;;20.40;59.10;;;;;;4935175;28;90849;-84
2022/09/29 12:48:29;;;;;;;12.57;4.88;;;20.30;59.20;;;;;;4959159;28;89109;-85
2022/09/29 12:51:09;;;;;;;11.93;4.13;;;20.30;59.40;;;;;;4957167;28;91399;-84
2022/09/29 12:53:58;;;;;;;12.68;4.57;;;20.30;59.50;;;;;;4960671;28;87523;-84
2022/09/29 12:56:35;;;;;;;;;;;20.30;59.60;;;;;;4960501;28;91774;-85
2022/09/29 12:59:08;;;;;;;13.60;4.75;;;20.30;59.70;;;;;;4979957;28;88662;-84
2022/09/29 13:01:36;;;;;;;14.25;4.22;;;20.30;59.70;;;;;;4964415;28;88394;-85
2022/09/29 13:04:49;;;;;;;11.85;4.28;;;20.30;59.70;;;;;;4959716;28;87873;-85
2022/09/29 13:07:35;;;;;;;12.32;3.83;;;20.40;59.70;;;;;;4907526;28;90341;-85
2022/09/29 13:10:11;;;;;;;13.15;4.05;;;20.40;59.60;;;;;;4907562;28;88237;-85
2022/09/29 13:12:55;;;;;;;15.32;4.57;;;20.40;59.60;;;;;;4909354;28;87250;-85